AirNav   Duncan Aviation - Near you to keep you flying
 
 400 users online  

SC20 Harman Airport
Langley, South Carolina, USA

GOING TO LANGLEY?


FAA INFORMATION EFFECTIVE 03 NOVEMBER 2022

Location

FAA Identifier: SC20
Lat/Long: 33-29-03.4960N 081-49-33.4030W
33-29.058267N 081-49.556717W
33.4843044,-81.8259453
(estimated)
Elevation: 458 ft. / 140 m (estimated)
Variation: 04W (1985)
From city: 2 miles S of LANGLEY, SC
Time zone: UTC -5 (UTC -4 during Daylight Saving Time)
Zip code: 29851

Airport Operations

Airport use: Private use. Permission required prior to landing
Activation date: 06/1976
Control tower: no
ARTCC: ATLANTA CENTER
FSS: ANDERSON FLIGHT SERVICE STATION
Attendance: UNATNDD
Segmented circle: no

Airport Communications

WX ASOS at AGS (10 nm SW): PHONE 706-790-0631
WX ASOS at DNL (11 nm W): 135.275 (706-481-8629)
WX AWOS-3 at AIK (12 nm NE): 118.025 (803-643-8664)

Nearby radio navigation aids

VOR radial/distance  VOR name  Freq  Var
IRQr133/21.5COLLIERS VORTAC113.9004W
ALDr318/(39.0)ALLENDALE VOR116.7001W

 
NDB name  Hdg/Dist  Freq  Var  ID
EMORY085/8.738504WEMR . -- .-.
AIKEN223/12.534706WAIK .- .. -.-
BUSHE031/13.323304WAG .- --.

Airport Services

Runway Information

Runway 14/32

Dimensions: 1500 x 50 ft. / 457 x 15 m
Surface: turf
RUNWAY 14  RUNWAY 32
Traffic pattern: leftleft
Obstructions: none35 ft. trees, 75 ft. from runway

Airport Ownership and Management from official FAA records

Ownership: Privately-owned
Owner: CHARLES W. HARMAN
3091 PINE LOG RD
WARRENVILLE, SC 29851
Phone 803-593-8458

Airport Operational Statistics

Aircraft based on the field: 1
Single engine airplanes: 1
    

Additional Remarks

FOR CD CTC ATLANTA ARTCC AT 770-210-7692.

Instrument Procedures

There are no published instrument procedures at SC20.

Some nearby airports with instrument procedures:

KAGS - Augusta Regional Airport at Bush Field (10 nm SW)
KDNL - Daniel Field Airport (11 nm W)
KAIK - Aiken Regional Airport (12 nm NE)
KBNL - Barnwell Regional Airport (26 nm SE)
6J4 - Saluda County Airport (27 nm N)
 
Loc | Ops | Rwys | IFR | FBO | Links
Com | Nav | Svcs | Stats | Notes
Area around SC20 (Harman Airport)
 
Road maps at: MapQuest Bing Google
 
Aerial photo
No photo
 
Sectional chart

 
Airport distance calculator
Flying to Harman Airport? Find the distance to fly.

From to SC20

Sunrise and sunset
Times for 29-Nov-2022
 Local
(UTC-5)
 Zulu
(UTC)
Morning civil twilight06:4611:46
Sunrise07:1312:13
Sunset17:1922:19
Evening civil twilight17:4622:46

Current date and time
Zulu (UTC)  29-Nov-2022 07:32:44
Local (UTC-5)  29-Nov-2022 02:32:44
 
METAR
KAGS 
10nm SW 
290720Z AUTO 00000KT 3SM BR CLR 04/04 A3010 RMK AO2 T00440039 $
KDNL 
10nm W 
290653Z AUTO 00000KT 10SM CLR 09/07 A3010 RMK AO2 SLP189 T00940067
KAIK 
12nm NE 
290715Z AUTO 00000KT 10SM CLR 05/04 A3010 RMK AO2 T00480041
TAF
KAGS 
10nm SW 
290530Z 2906/3006 00000KT P6SM SKC FM290800 00000KT 4SM BR SKC TEMPO 2909/2913 3/4SM BR VV002 FM291300 12005KT P6SM SKC
KDNL 
10nm W 
290530Z 2906/3006 00000KT P6SM SKC FM291500 12005KT P6SM SKC
NOTAMs
Click for the latest NOTAMs
NOTAMs are issued by the DoD/FAA and will open in a separate window not controlled by AirNav.

 

 
 

Would you like to see your business listed on this page?

 If your business provides an interesting product or service to pilots, flight crews, aircraft, or users of the Harman Airport, you should consider listing it here.  To start the listing process, click on the button below
 
Add a business
 

Other Pages about Harman Airport

Update a link
 
Copyright © AirNav, LLC. All rights reserved. Privacy Policy  Contact